Información del aeropuerto LEZL

Información de pista
Pista 09 Longitud 11024 ft Anchura 148 ft
Elevación 83 ft Umbral 0 ft Rumbo 90
Pista 27 Longitud 11024 ft Anchura 148 ft
Elevación 111 ft Umbral 0 ft Rumbo 270
Frecuencias del aeropuerto
Tipo APP Nombre APP Frecuencia 120 MHZ
Tipo ATIS Nombre ATIS Frecuencia 118.175 MHZ
Tipo GND Nombre GND Frecuencia 121.7 MHZ
Tipo TWR Nombre TWR Frecuencia 118.1 MHZ
Radioayudas del aeropuerto
Tipo NDB Nombre Sevilla Frecuencia 420 KHZ
Tipo VOR-DME Nombre Sevilla Frecuencia 113700 KHZ
Información meteorológica del aeropuerto y NOTAM
ADDS - METARS form results

(0327 UTC 31 July 2021)
Data provider http://aviationweather.gov/metar/data/
 
METAR text: LEZL 310300Z AUTO 32004KT 290V350 CAVOK 22/13 Q1014
Conditions at: LEZL (SEVILLA (CIV/MIL, ES) observed 0300 UTC 31 July 2021
Temperature: 22.0°C (72°F)
Dewpoint: 13.0°C (55°F) [RH = 57%]
Pressure (altimeter): 29.94 inches Hg (1014.0 mb)
Winds: from the NW (320 degrees) at 5 MPH (4 knots; 2.1 m/s)
Visibility: 6 or more miles (10+ km)
Ceiling: ceiling and visibility are OK
Clouds: unknown
Weather: no significant weather observed at this time

METAR text: LEZL 310230Z AUTO VRB04KT CAVOK 22/13 Q1014
Conditions at: LEZL (SEVILLA (CIV/MIL, ES) observed 0230 UTC 31 July 2021
Temperature: 22.0°C (72°F)
Dewpoint: 13.0°C (55°F) [RH = 57%]
Pressure (altimeter): 29.94 inches Hg (1014.0 mb)
Winds: variable direction winds at 5 MPH (4 knots; 2.1 m/s)
Visibility: 6 or more miles (10+ km)
Ceiling: ceiling and visibility are OK
Clouds: unknown
Weather: no significant weather observed at this time

Forecast for: LEZL (SEVILLA (CIV/MIL, ES)
Text: TAF LEZL 310200Z 3103/0103 30008KT CAVOK TX32/3115Z TN20/3106Z
Forecast period: 0300 UTC 31 July 2021 to 0300 UTC 01 August 2021
Forecast type: FROM: standard forecast or significant change
Winds: from the WNW (300 degrees) at 9 MPH (8 knots; 4.1 m/s)
Visibility: 6 or more miles (10+ km)
Ceiling: unknown
Clouds: missing
Weather: no significant weather forecast for this period